Brownville, New York
Current Conditions -  °F | °C
As of 6:56 PM on Sunday 21 Dec 2014 (Local Time) from KART Reporting Station
Overcast Overcast  
Wind Chill: 29°   Ceiling: 2900
Heat Index: 29°   Visibility: 9mi
Dew Point: 20°   Wind: 3mph
Humidity: 69%   Direction: 60°ENE
Pressure: 30.35"   Gusts: NA
Location:  44.01°N, 75.98°W
Report Text: KART 212356Z AUTO 06003KT 9SM OVC029 M02/M07 A3035 RMK AO2 SLP282 T10171067 10022 21022 51014
Loading
Personal Weather Stations






























Interactive Weather Map New forecast layout! Learn more

10-Day Weather Forecast

Advertisements
Track Severe Weather on mobile